Time;durP1;ratioP1;P1;durP2;ratioP2;P2;SDS_P1;SDS_P2;PMS_P1;PMS_P2;Temp;Humidity;BMP_temperature;BMP_pressure;BME280_temperature;BME280_humidity;BME280_pressure;Samples;Min_cycle;Max_cycle;Signal;HPM_P1;HPM_P2
2023/03/15 00:01:49;;;;;;;9.20;2.70;;;5.20;99.90;;;;;;4992956;28;20353;-73
2023/03/15 00:04:35;;;;;;;6.13;2.47;;;5.20;99.90;;;;;;4987672;28;20917;-73
2023/03/15 00:07:24;;;;;;;2.80;2.30;;;5.30;99.90;;;;;;4993803;28;20313;-73
2023/03/15 00:10:11;;;;;;;4.30;2.50;;;5.20;99.90;;;;;;4984885;28;20728;-73
2023/03/15 00:12:58;;;;;;;5.10;3.38;;;5.30;99.90;;;;;;5004517;28;20232;-72
2023/03/15 00:15:48;;;;;;;6.60;2.40;;;5.20;99.90;;;;;;4989142;28;20216;-73
2023/03/15 00:18:33;;;;;;;4.97;2.60;;;5.10;99.90;;;;;;5000305;28;20233;-73
2023/03/15 00:21:19;;;;;;;3.40;2.45;;;5.00;99.90;;;;;;4989757;28;20951;-72
2023/03/15 00:24:05;;;;;;;6.88;2.30;;;5.00;99.90;;;;;;4991315;28;20673;-72
2023/03/15 00:26:50;;;;;;;4.00;2.70;;;4.90;99.90;;;;;;4989263;28;20228;-73
2023/03/15 00:29:37;;;;;;;3.05;2.33;;;4.80;99.90;;;;;;4990663;28;20214;-72
2023/03/15 00:32:23;;;;;;;8.38;2.35;;;4.80;99.90;;;;;;4998213;28;20343;-72
2023/03/15 00:35:11;;;;;;;4.32;1.90;;;4.70;99.90;;;;;;4992397;28;20227;-72
2023/03/15 00:37:57;;;;;;;7.25;3.20;;;4.60;99.90;;;;;;4992873;28;20360;-72
2023/03/15 00:40:43;;;;;;;7.85;2.88;;;4.50;99.90;;;;;;4984182;28;20215;-73
2023/03/15 00:43:28;;;;;;;3.80;2.50;;;4.40;99.90;;;;;;4986995;28;20213;-73
2023/03/15 00:46:17;;;;;;;7.80;2.70;;;4.30;99.90;;;;;;4985647;28;20212;-73
2023/03/15 00:49:03;;;;;;;4.82;3.10;;;4.20;99.90;;;;;;4984707;28;20256;-74
2023/03/15 00:51:48;;;;;;;9.05;3.20;;;4.10;99.90;;;;;;4988395;28;20594;-73
2023/03/15 00:54:34;;;;;;;5.63;2.83;;;4.10;99.90;;;;;;4990608;28;20286;-72
2023/03/15 00:57:20;;;;;;;8.10;3.35;;;4.00;99.90;;;;;;4992363;28;20586;-72
2023/03/15 01:00:08;;;;;;;5.00;2.92;;;3.80;99.90;;;;;;4984970;28;20588;-72
2023/03/15 01:02:55;;;;;;;9.88;3.20;;;3.80;99.90;;;;;;4997205;28;20248;-72
2023/03/15 01:05:41;;;;;;;6.80;2.70;;;3.80;99.90;;;;;;4988519;28;20209;-73
2023/03/15 01:08:27;;;;;;;4.90;2.90;;;3.80;99.90;;;;;;4997351;28;20324;-74
2023/03/15 01:11:14;;;;;;;9.02;3.95;;;3.80;99.90;;;;;;4991272;28;20600;-72
2023/03/15 01:14:02;;;;;;;5.00;2.95;;;3.70;99.90;;;;;;4992564;28;20213;-72
2023/03/15 01:16:47;;;;;;;6.70;3.20;;;3.70;99.90;;;;;;4987364;28;20208;-72
2023/03/15 01:19:35;;;;;;;6.95;3.05;;;3.70;99.90;;;;;;4991486;28;20267;-73
2023/03/15 01:22:20;;;;;;;8.95;3.28;;;3.60;99.90;;;;;;4991793;28;20238;-72
2023/03/15 01:25:08;;;;;;;8.95;3.70;;;3.70;99.90;;;;;;4995968;28;20294;-72
2023/03/15 01:27:53;;;;;;;10.95;3.08;;;3.60;99.90;;;;;;4994021;28;20216;-72
2023/03/15 01:30:39;;;;;;;6.80;2.85;;;3.60;99.90;;;;;;4992736;28;20690;-72
2023/03/15 01:33:25;;;;;;;7.20;3.00;;;3.70;99.90;;;;;;4990280;28;20351;-72
2023/03/15 01:36:12;;;;;;;3.83;2.50;;;3.70;99.90;;;;;;4992109;28;20351;-72
2023/03/15 01:38:58;;;;;;;6.13;3.40;;;3.70;99.90;;;;;;4984168;28;20227;-74
2023/03/15 01:41:44;;;;;;;8.55;3.08;;;3.70;99.90;;;;;;4990517;28;20241;-72
2023/03/15 01:44:51;;;;;;;5.78;2.85;;;3.60;99.90;;;;;;4993106;28;20212;-72
2023/03/15 01:47:37;;;;;;;8.05;3.08;;;3.60;99.90;;;;;;4992141;28;20690;-72
2023/03/15 01:50:24;;;;;;;6.30;2.80;;;3.50;99.90;;;;;;4992685;28;20369;-72
2023/03/15 01:53:12;;;;;;;11.32;3.92;;;3.50;99.90;;;;;;4996105;28;20208;-72
2023/03/15 01:55:59;;;;;;;6.80;3.40;;;3.40;99.90;;;;;;4986521;28;20212;-72
2023/03/15 01:58:47;;;;;;;8.52;3.17;;;3.40;99.90;;;;;;4976742;28;20303;-73
2023/03/15 02:01:34;;;;;;;3.55;2.80;;;3.40;99.90;;;;;;4995696;28;20231;-73
2023/03/15 02:04:25;;;;;;;5.20;2.90;;;3.50;99.90;;;;;;4991291;28;20264;-73
2023/03/15 02:07:10;;;;;;;5.35;3.10;;;3.40;99.90;;;;;;4992439;28;20208;-72
2023/03/15 02:10:02;;;;;;;4.18;2.70;;;3.40;99.90;;;;;;4982461;28;20216;-72
2023/03/15 02:12:52;;;;;;;5.00;3.05;;;3.50;99.90;;;;;;4995734;28;20334;-73
2023/03/15 02:15:37;;;;;;;7.60;2.88;;;3.50;99.90;;;;;;4991393;28;20212;-72
2023/03/15 02:18:23;;;;;;;5.35;2.70;;;3.60;99.90;;;;;;4985557;28;20279;-72
2023/03/15 02:21:23;;;;;;;11.30;3.50;;;3.60;99.90;;;;;;4993825;28;20253;-72
2023/03/15 02:24:21;;;;;;;10.63;4.15;;;3.40;99.90;;;;;;4990733;28;20209;-72
2023/03/15 02:27:08;;;;;;;7.97;3.40;;;3.40;99.90;;;;;;4991174;28;20287;-73
2023/03/15 02:29:55;;;;;;;4.95;2.65;;;3.40;99.90;;;;;;4989210;28;20602;-73
2023/03/15 02:32:41;;;;;;;6.25;2.10;;;3.40;99.90;;;;;;4989248;28;20595;-71
2023/03/15 02:35:29;;;;;;;7.40;2.33;;;3.30;99.90;;;;;;4988004;28;20296;-72
2023/03/15 02:38:15;;;;;;;4.13;2.75;;;3.20;99.90;;;;;;4986771;28;20225;-73
2023/03/15 02:41:01;;;;;;;8.20;2.67;;;3.20;99.90;;;;;;4989194;28;20241;-72
2023/03/15 02:43:48;;;;;;;8.27;2.67;;;3.20;99.90;;;;;;4984976;28;20213;-73
2023/03/15 02:46:36;;;;;;;14.93;2.40;;;3.10;99.90;;;;;;4996800;28;20583;-72
2023/03/15 02:49:26;;;;;;;5.10;2.78;;;3.20;99.90;;;;;;4988954;28;20209;-72
2023/03/15 02:52:12;;;;;;;9.13;2.83;;;3.20;99.90;;;;;;4992400;28;20310;-72
2023/03/15 02:54:58;;;;;;;3.85;2.20;;;3.10;99.90;;;;;;5000467;28;20212;-72
2023/03/15 02:57:44;;;;;;;3.95;2.20;;;3.00;99.90;;;;;;4990722;28;20215;-72
2023/03/15 03:00:30;;;;;;;5.53;2.35;;;3.00;99.90;;;;;;4998394;28;20288;-72
2023/03/15 03:03:17;;;;;;;6.68;3.20;;;2.90;99.90;;;;;;4990426;28;20612;-72
2023/03/15 03:06:03;;;;;;;5.78;2.60;;;3.00;99.90;;;;;;5001051;28;20252;-73
2023/03/15 03:08:49;;;;;;;4.47;2.15;;;3.00;99.90;;;;;;4991677;28;20220;-72
2023/03/15 03:11:35;;;;;;;5.05;2.45;;;2.90;99.90;;;;;;4984233;28;20311;-72
2023/03/15 03:14:22;;;;;;;7.50;2.72;;;3.00;99.90;;;;;;4988532;28;20278;-73
2023/03/15 03:17:08;;;;;;;3.83;2.00;;;3.10;99.90;;;;;;4987510;28;20212;-72
2023/03/15 03:19:55;;;;;;;7.90;2.72;;;3.00;99.90;;;;;;4991094;28;20232;-72
2023/03/15 03:22:43;;;;;;;6.50;1.98;;;3.00;99.90;;;;;;4987057;28;20701;-72
2023/03/15 03:25:29;;;;;;;6.25;2.25;;;2.90;99.90;;;;;;4983630;28;20210;-72
2023/03/15 03:28:15;;;;;;;6.07;2.33;;;2.90;99.90;;;;;;4987095;28;20204;-72
2023/03/15 03:31:00;;;;;;;4.28;2.40;;;2.80;99.90;;;;;;4984679;28;20224;-73
2023/03/15 03:33:46;;;;;;;8.23;2.67;;;2.80;99.90;;;;;;4991692;28;20712;-72
2023/03/15 03:36:33;;;;;;;4.90;2.60;;;2.80;99.90;;;;;;4983172;28;20208;-73
2023/03/15 03:39:18;;;;;;;7.60;2.67;;;2.60;99.90;;;;;;4989429;28;20993;-72
2023/03/15 03:42:05;;;;;;;5.53;2.40;;;2.60;99.90;;;;;;4983822;28;20816;-72
2023/03/15 03:44:50;;;;;;;9.35;2.15;;;2.50;99.90;;;;;;4979756;28;20220;-72
2023/03/15 03:47:36;;;;;;;6.18;2.55;;;2.50;99.90;;;;;;4983664;28;20350;-73
2023/03/15 03:50:22;;;;;;;3.35;2.40;;;2.50;99.90;;;;;;4988839;28;20838;-72
2023/03/15 03:53:09;;;;;;;8.80;2.42;;;2.70;99.90;;;;;;4986506;28;20299;-72
2023/03/15 03:55:54;;;;;;;6.65;2.15;;;2.70;99.90;;;;;;4987859;28;20215;-73
2023/03/15 03:58:40;;;;;;;11.77;2.80;;;2.60;99.90;;;;;;4980977;28;20212;-73
2023/03/15 04:01:26;;;;;;;11.80;3.00;;;2.60;99.90;;;;;;4990359;28;20306;-72
2023/03/15 04:04:12;;;;;;;6.28;2.72;;;2.60;99.90;;;;;;4982505;28;20259;-72
2023/03/15 04:06:58;;;;;;;7.90;2.35;;;2.80;99.90;;;;;;4983806;28;20721;-72
2023/03/15 04:09:45;;;;;;;8.63;2.97;;;2.80;99.90;;;;;;4983968;28;20266;-72
2023/03/15 04:12:31;;;;;;;7.75;2.90;;;2.70;99.90;;;;;;4977945;28;20224;-73
2023/03/15 04:15:16;;;;;;;12.60;3.38;;;2.70;99.90;;;;;;4985447;28;20222;-72
2023/03/15 04:18:04;;;;;;;9.02;3.10;;;2.60;99.90;;;;;;4983435;28;20211;-73
2023/03/15 04:20:53;;;;;;;7.13;2.70;;;2.60;99.90;;;;;;4982429;28;20253;-72
2023/03/15 04:23:39;;;;;;;13.43;3.25;;;2.50;99.90;;;;;;5053734;23;20239;-71
2023/03/15 04:26:26;;;;;;;8.10;2.83;;;2.40;99.90;;;;;;5017224;28;22826;-71
2023/03/15 04:29:13;;;;;;;5.20;2.53;;;2.40;99.90;;;;;;5025498;28;20206;-71
2023/03/15 04:32:00;;;;;;;6.68;2.38;;;2.30;99.90;;;;;;5028325;28;20232;-71
2023/03/15 04:34:50;;;;;;;6.82;2.75;;;2.30;99.90;;;;;;5032535;28;20210;-71
2023/03/15 04:37:35;;;;;;;7.70;3.50;;;2.30;99.90;;;;;;5026851;28;20270;-71
2023/03/15 04:40:22;;;;;;;6.22;2.50;;;2.30;99.90;;;;;;5029414;28;20218;-71
2023/03/15 04:43:10;;;;;;;6.82;3.47;;;2.20;99.90;;;;;;5023416;28;20294;-71
2023/03/15 04:45:56;;;;;;;5.88;3.15;;;2.20;99.90;;;;;;5032635;28;20219;-71
2023/03/15 04:48:41;;;;;;;8.00;2.70;;;2.20;99.90;;;;;;5028740;28;20213;-71
2023/03/15 04:51:27;;;;;;;6.18;3.05;;;2.20;99.90;;;;;;5024322;28;20692;-71
2023/03/15 04:54:12;;;;;;;9.00;3.00;;;2.30;99.90;;;;;;5035906;28;20347;-71
2023/03/15 04:56:58;;;;;;;5.18;2.97;;;2.20;99.90;;;;;;5025393;28;20216;-71
2023/03/15 04:59:45;;;;;;;6.90;2.80;;;2.20;99.90;;;;;;5030695;28;20235;-71
2023/03/15 05:02:30;;;;;;;5.70;2.80;;;2.20;99.90;;;;;;5034944;28;20277;-71
2023/03/15 05:05:16;;;;;;;6.38;3.05;;;2.20;99.90;;;;;;5035432;28;20686;-71
2023/03/15 05:08:02;;;;;;;9.18;3.08;;;2.20;99.90;;;;;;5031290;28;20679;-71
2023/03/15 05:10:48;;;;;;;5.00;3.13;;;2.20;99.90;;;;;;5039560;28;20260;-71
2023/03/15 05:13:33;;;;;;;5.80;2.83;;;2.10;99.90;;;;;;5029446;28;20239;-71
2023/03/15 05:16:20;;;;;;;6.15;3.00;;;2.10;99.90;;;;;;5026487;28;20210;-71
2023/03/15 05:19:06;;;;;;;10.30;3.13;;;2.10;99.90;;;;;;5037914;28;20206;-71
2023/03/15 05:21:53;;;;;;;9.23;3.50;;;2.20;99.90;;;;;;5033439;28;20744;-71
2023/03/15 05:24:39;;;;;;;5.00;3.00;;;2.20;99.90;;;;;;5031277;28;20215;-71
2023/03/15 05:27:24;;;;;;;4.57;2.60;;;2.30;99.90;;;;;;5032383;28;20338;-71
2023/03/15 05:30:13;;;;;;;6.63;3.65;;;2.30;99.90;;;;;;5038858;28;20292;-71
2023/03/15 05:33:03;;;;;;;7.13;3.20;;;2.30;99.90;;;;;;5036348;28;20642;-71
2023/03/15 05:35:49;;;;;;;8.30;4.18;;;2.40;99.90;;;;;;5026055;28;20218;-71
2023/03/15 05:38:34;;;;;;;7.22;3.17;;;2.40;99.90;;;;;;5026706;28;20570;-71
2023/03/15 05:41:20;;;;;;;9.13;4.13;;;2.50;99.90;;;;;;5030503;28;20358;-71
2023/03/15 05:44:05;;;;;;;5.28;2.80;;;2.70;99.90;;;;;;5019648;28;20202;-71
2023/03/15 05:46:51;;;;;;;12.63;4.25;;;2.70;99.90;;;;;;5033409;28;20203;-71
2023/03/15 05:49:38;;;;;;;4.65;3.00;;;2.60;99.90;;;;;;5029543;28;20247;-71
2023/03/15 05:52:25;;;;;;;4.45;3.15;;;2.60;99.90;;;;;;5026627;28;20227;-71
2023/03/15 05:55:10;;;;;;;7.93;2.72;;;2.60;99.90;;;;;;5029389;28;20250;-71
2023/03/15 05:57:56;;;;;;;5.07;2.72;;;2.70;99.90;;;;;;5037592;28;20215;-71
2023/03/15 06:00:42;;;;;;;7.18;3.95;;;2.70;99.90;;;;;;5035729;28;20230;-71
2023/03/15 06:03:27;;;;;;;8.18;3.55;;;2.60;99.90;;;;;;5035329;28;20801;-71
2023/03/15 06:06:14;;;;;;;8.25;4.13;;;2.80;99.90;;;;;;5028273;28;20254;-71
2023/03/15 06:09:00;;;;;;;13.30;4.72;;;2.90;99.90;;;;;;5032755;28;20207;-71
2023/03/15 06:11:46;;;;;;;8.75;5.82;;;3.00;99.90;;;;;;5037999;28;20226;-72
2023/03/15 06:14:32;;;;;;;12.93;5.00;;;3.00;99.90;;;;;;5031532;28;20217;-71
2023/03/15 06:17:17;;;;;;;13.65;5.20;;;3.10;99.90;;;;;;5039645;28;20281;-71
2023/03/15 06:20:03;;;;;;;12.43;3.92;;;3.10;99.90;;;;;;5042547;28;20275;-71
2023/03/15 06:22:51;;;;;;;14.73;4.03;;;3.20;99.90;;;;;;5037268;28;20296;-71
2023/03/15 06:25:37;;;;;;;15.80;3.95;;;3.40;99.90;;;;;;5017534;28;20587;-71
2023/03/15 06:28:23;;;;;;;17.50;6.18;;;3.40;99.90;;;;;;5036575;28;20199;-71
2023/03/15 06:31:10;;;;;;;14.65;4.40;;;3.40;99.90;;;;;;5034605;28;20198;-71
2023/03/15 06:33:56;;;;;;;9.75;4.30;;;3.50;99.90;;;;;;5032864;28;20203;-71
2023/03/15 06:36:42;;;;;;;14.05;4.80;;;3.50;99.90;;;;;;5030367;28;20218;-71
2023/03/15 06:39:29;;;;;;;10.02;3.53;;;3.60;99.90;;;;;;5035913;28;20203;-71
2023/03/15 06:42:15;;;;;;;17.48;5.53;;;3.60;99.90;;;;;;5031491;28;20268;-71
2023/03/15 06:45:02;;;;;;;13.82;4.13;;;3.70;99.90;;;;;;5025183;28;20211;-71
2023/03/15 06:47:47;;;;;;;6.47;4.22;;;3.70;99.90;;;;;;5023084;28;20204;-71
2023/03/15 06:50:33;;;;;;;16.20;4.57;;;3.60;99.90;;;;;;5017980;28;20307;-71
2023/03/15 06:53:19;;;;;;;11.25;4.50;;;3.60;99.90;;;;;;5028797;28;20222;-71
2023/03/15 06:56:07;;;;;;;14.35;5.00;;;3.60;99.90;;;;;;5025178;28;20198;-71
2023/03/15 06:58:52;;;;;;;10.80;3.97;;;3.60;99.90;;;;;;5035542;28;20583;-71
2023/03/15 07:01:38;;;;;;;17.08;4.60;;;3.70;99.90;;;;;;5029252;28;20220;-71
2023/03/15 07:04:25;;;;;;;16.67;4.60;;;3.60;99.90;;;;;;5034278;28;20211;-71
2023/03/15 07:07:10;;;;;;;10.60;5.25;;;3.60;99.90;;;;;;5028177;28;20200;-71
2023/03/15 07:09:56;;;;;;;7.97;3.55;;;3.60;99.90;;;;;;5024862;28;20335;-71
2023/03/15 07:12:43;;;;;;;6.15;3.30;;;3.60;99.90;;;;;;5034036;28;20234;-71
2023/03/15 07:15:28;;;;;;;15.75;4.55;;;3.60;99.90;;;;;;5023831;28;20218;-71
2023/03/15 07:18:14;;;;;;;10.35;4.53;;;3.60;99.90;;;;;;5034252;28;20203;-71
2023/03/15 07:21:01;;;;;;;11.40;4.10;;;3.50;99.90;;;;;;5027265;28;20223;-71
2023/03/15 07:23:47;;;;;;;8.40;4.40;;;3.50;99.90;;;;;;5029342;28;20235;-71
2023/03/15 07:26:32;;;;;;;10.02;4.05;;;3.60;99.90;;;;;;5033282;28;20839;-71
2023/03/15 07:29:20;;;;;;;6.75;4.75;;;3.70;99.90;;;;;;5034802;28;20699;-71
2023/03/15 07:32:05;;;;;;;11.05;4.40;;;3.70;99.90;;;;;;5039892;28;20213;-71
2023/03/15 07:34:51;;;;;;;10.20;4.45;;;3.70;99.90;;;;;;5027142;28;20261;-71
2023/03/15 07:37:37;;;;;;;13.35;4.85;;;3.70;99.90;;;;;;5039749;28;20246;-71
2023/03/15 07:40:22;;;;;;;8.88;5.60;;;3.70;99.90;;;;;;5037214;28;20222;-71
2023/03/15 07:43:08;;;;;;;11.45;4.82;;;3.50;99.90;;;;;;5031812;28;20788;-71
2023/03/15 07:45:55;;;;;;;12.32;5.07;;;3.40;99.90;;;;;;5027590;28;20207;-71
2023/03/15 07:48:41;;;;;;;8.15;4.95;;;3.50;99.90;;;;;;5034651;28;20207;-71
2023/03/15 07:51:27;;;;;;;10.63;4.43;;;3.60;99.90;;;;;;5034906;28;20203;-71
2023/03/15 07:54:12;;;;;;;12.10;5.38;;;3.60;99.90;;;;;;5032690;28;20194;-71
2023/03/15 07:56:58;;;;;;;15.10;5.47;;;3.60;99.90;;;;;;5037909;28;20620;-71
2023/03/15 07:59:43;;;;;;;8.60;5.05;;;3.50;99.90;;;;;;5034062;28;20207;-71
2023/03/15 08:02:31;;;;;;;12.93;4.95;;;3.60;99.90;;;;;;5025646;28;20841;-71
2023/03/15 08:05:17;;;;;;;16.75;5.45;;;3.60;99.90;;;;;;5030928;28;20276;-71
2023/03/15 08:08:03;;;;;;;8.25;4.80;;;3.50;99.90;;;;;;5043292;28;20200;-72
2023/03/15 08:10:49;;;;;;;12.07;5.30;;;3.60;99.90;;;;;;5038515;28;20222;-72
2023/03/15 08:13:35;;;;;;;11.05;5.43;;;3.50;99.90;;;;;;5020279;28;20699;-71
2023/03/15 08:16:20;;;;;;;10.50;4.38;;;3.50;99.90;;;;;;5035096;28;20649;-71
2023/03/15 08:19:08;;;;;;;10.95;4.50;;;3.60;99.90;;;;;;5036014;28;20206;-71
2023/03/15 08:21:53;;;;;;;13.48;5.30;;;3.40;99.90;;;;;;5036704;28;20309;-71
2023/03/15 08:24:39;;;;;;;11.30;5.05;;;3.50;99.90;;;;;;5034629;28;20201;-71
2023/03/15 08:27:25;;;;;;;10.75;4.50;;;3.40;99.90;;;;;;5035297;28;20273;-71
2023/03/15 08:30:13;;;;;;;13.10;5.72;;;3.50;99.90;;;;;;5020575;28;20211;-71
2023/03/15 08:32:59;;;;;;;9.07;4.85;;;3.60;99.90;;;;;;5020432;28;20350;-71
2023/03/15 08:35:46;;;;;;;13.13;5.88;;;3.70;99.90;;;;;;5021835;28;20207;-71
2023/03/15 08:38:32;;;;;;;12.15;4.70;;;3.70;99.90;;;;;;5020339;28;20681;-71
2023/03/15 08:41:17;;;;;;;7.97;4.70;;;3.70;99.90;;;;;;5017773;28;20224;-71
2023/03/15 08:44:04;;;;;;;9.85;5.20;;;3.70;99.90;;;;;;5019234;28;20207;-71
2023/03/15 08:46:49;;;;;;;8.98;4.13;;;3.90;99.90;;;;;;5022932;28;20203;-71
2023/03/15 08:49:35;;;;;;;13.02;4.20;;;3.90;99.90;;;;;;5029141;28;20210;-71
2023/03/15 08:52:22;;;;;;;16.65;5.00;;;3.80;99.90;;;;;;5035163;28;20278;-71
2023/03/15 08:55:09;;;;;;;8.13;4.10;;;3.90;99.90;;;;;;5040618;28;20846;-71
2023/03/15 08:57:54;;;;;;;6.60;4.80;;;3.90;99.90;;;;;;5028312;28;20207;-71
2023/03/15 09:00:40;;;;;;;9.00;4.05;;;3.80;99.90;;;;;;5038376;28;20254;-72
2023/03/15 09:03:26;;;;;;;8.70;4.28;;;3.70;99.90;;;;;;5026161;28;20254;-71
2023/03/15 09:06:12;;;;;;;10.02;4.97;;;3.70;99.90;;;;;;5035843;28;20203;-71
2023/03/15 09:08:59;;;;;;;9.00;4.53;;;3.80;99.90;;;;;;5029506;28;20204;-72
2023/03/15 09:11:45;;;;;;;10.50;4.43;;;3.90;99.90;;;;;;5037771;28;20199;-71
2023/03/15 09:14:30;;;;;;;8.82;3.97;;;4.00;99.90;;;;;;5026495;28;20267;-71
2023/03/15 09:17:16;;;;;;;9.43;3.95;;;4.00;99.90;;;;;;5026212;28;20215;-71
2023/03/15 09:20:06;;;;;;;6.65;4.80;;;4.00;99.90;;;;;;5034243;28;20331;-71
2023/03/15 09:22:54;;;;;;;10.90;4.82;;;4.00;99.90;;;;;;5034635;28;20752;-72
2023/03/15 09:25:41;;;;;;;9.10;4.40;;;4.00;99.90;;;;;;5038462;28;20329;-72
2023/03/15 09:28:27;;;;;;;8.80;4.35;;;4.00;99.90;;;;;;5028267;28;20249;-72
2023/03/15 09:31:13;;;;;;;7.93;4.35;;;4.10;99.90;;;;;;5037868;28;20230;-72
2023/03/15 09:33:58;;;;;;;10.93;5.10;;;4.10;99.90;;;;;;5034999;28;20273;-71
2023/03/15 09:36:44;;;;;;;8.38;5.28;;;4.10;99.90;;;;;;5021378;28;20251;-72
2023/03/15 09:39:32;;;;;;;13.38;4.85;;;4.10;99.90;;;;;;5027339;28;20203;-71
2023/03/15 09:42:25;;;;;;;12.02;5.25;;;4.10;99.90;;;;;;5037468;28;20235;-72
2023/03/15 09:45:22;;;;;;;11.18;4.93;;;4.00;99.90;;;;;;5035523;28;20226;-71
2023/03/15 09:48:11;;;;;;;12.90;4.95;;;4.00;99.90;;;;;;5026858;28;20199;-72
2023/03/15 09:51:02;;;;;;;11.63;5.40;;;3.90;99.90;;;;;;5027764;28;20207;-72
2023/03/15 09:53:54;;;;;;;12.38;5.68;;;3.90;99.90;;;;;;5027485;28;20227;-72
2023/03/15 09:56:45;;;;;;;8.02;5.57;;;4.00;99.90;;;;;;5030155;28;20342;-71
2023/03/15 09:59:34;;;;;;;9.82;5.93;;;3.80;99.90;;;;;;5034702;28;20669;-71
2023/03/15 10:02:25;;;;;;;15.15;5.75;;;3.80;99.90;;;;;;5034910;28;20711;-72
2023/03/15 10:05:16;;;;;;;8.85;6.28;;;3.70;99.90;;;;;;5030294;28;20331;-71
2023/03/15 10:08:01;;;;;;;14.25;6.35;;;3.70;99.90;;;;;;5023038;28;20200;-72
2023/03/15 10:10:52;;;;;;;9.20;6.15;;;3.80;99.90;;;;;;5032570;28;20206;-72
2023/03/15 10:13:53;;;;;;;12.20;5.90;;;3.80;99.90;;;;;;5031521;28;20300;-72
2023/03/15 10:16:42;;;;;;;10.25;6.00;;;3.80;99.90;;;;;;5021624;28;20272;-72
2023/03/15 10:19:35;;;;;;;10.35;5.28;;;3.90;99.90;;;;;;5017077;28;20199;-72
2023/03/15 10:22:28;;;;;;;6.75;4.90;;;3.90;99.90;;;;;;5030607;28;21003;-72
2023/03/15 10:25:17;;;;;;;9.15;5.57;;;3.90;99.90;;;;;;5035947;28;20223;-73
2023/03/15 10:28:09;;;;;;;8.40;5.65;;;3.90;99.90;;;;;;5025464;28;20223;-73
2023/03/15 10:30:59;;;;;;;10.48;6.18;;;3.90;99.90;;;;;;5033416;28;20247;-72
2023/03/15 10:33:48;;;;;;;8.10;5.75;;;4.00;99.90;;;;;;5028380;28;20596;-73
2023/03/15 10:36:33;;;;;;;10.65;5.85;;;4.00;99.90;;;;;;5017495;28;20204;-73
2023/03/15 10:39:20;;;;;;;11.63;5.57;;;4.10;99.90;;;;;;5034969;28;20297;-73
2023/03/15 10:42:06;;;;;;;6.65;5.28;;;4.10;99.90;;;;;;5032530;28;20246;-73
2023/03/15 10:44:52;;;;;;;7.60;5.20;;;4.20;99.90;;;;;;5029909;28;20207;-72
2023/03/15 10:47:42;;;;;;;10.70;4.43;;;4.30;99.90;;;;;;5020469;28;20221;-73
2023/03/15 10:50:32;;;;;;;10.00;5.10;;;4.20;99.90;;;;;;5029525;28;20306;-73
2023/03/15 10:53:21;;;;;;;10.93;6.30;;;4.20;99.90;;;;;;5030472;28;20218;-72
2023/03/15 10:56:24;;;;;;;10.85;6.60;;;4.20;99.90;;;;;;5019810;28;20273;-72
2023/03/15 10:59:17;;;;;;;10.18;7.35;;;4.30;99.90;;;;;;5024080;28;20253;-72
2023/03/15 11:02:21;;;;;;;8.55;6.25;;;4.30;99.90;;;;;;5034125;28;20341;-72
2023/03/15 11:05:16;;;;;;;11.45;6.00;;;4.40;99.90;;;;;;5019063;28;20213;-72
2023/03/15 11:08:03;;;;;;;18.05;6.10;;;4.50;99.90;;;;;;5030193;28;20219;-73
2023/03/15 11:10:56;;;;;;;10.10;5.53;;;4.60;99.90;;;;;;5026999;28;20592;-73
2023/03/15 11:13:42;;;;;;;9.60;6.55;;;4.60;99.90;;;;;;5030321;28;20301;-73
2023/03/15 11:16:34;;;;;;;10.80;5.85;;;4.70;99.90;;;;;;5021975;28;20640;-73
2023/03/15 11:19:23;;;;;;;11.45;5.80;;;4.80;99.90;;;;;;5027809;28;20213;-73
2023/03/15 11:22:12;;;;;;;11.35;5.75;;;5.00;99.90;;;;;;5030859;28;20222;-72
2023/03/15 11:25:00;;;;;;;10.57;5.78;;;4.90;99.90;;;;;;5026113;28;20215;-72
2023/03/15 11:27:52;;;;;;;14.15;5.90;;;4.90;99.90;;;;;;5035885;28;20211;-72
2023/03/15 11:30:41;;;;;;;9.13;5.75;;;5.00;99.90;;;;;;5030714;28;20211;-72
2023/03/15 11:33:36;;;;;;;6.97;5.38;;;5.00;99.90;;;;;;5031936;28;20349;-72
2023/03/15 11:36:24;;;;;;;15.70;6.33;;;5.10;99.90;;;;;;5028751;28;20676;-72
2023/03/15 11:39:14;;;;;;;18.38;6.43;;;5.30;99.90;;;;;;5035637;28;20461;-72
2023/03/15 11:42:06;;;;;;;11.23;5.53;;;5.40;99.90;;;;;;5031197;28;20595;-72
2023/03/15 11:44:55;;;;;;;8.05;5.75;;;5.50;99.90;;;;;;5033281;28;20271;-71
2023/03/15 11:47:47;;;;;;;12.93;6.65;;;5.30;99.90;;;;;;5029616;28;20212;-72
2023/03/15 11:50:32;;;;;;;25.55;7.50;;;5.30;99.90;;;;;;5026249;28;20303;-72
2023/03/15 11:53:19;;;;;;;14.00;7.13;;;5.40;99.90;;;;;;5031144;28;21315;-72
2023/03/15 11:56:22;;;;;;;11.95;7.03;;;5.60;99.90;;;;;;5028936;28;20449;-72
2023/03/15 11:59:11;;;;;;;9.77;6.07;;;5.90;99.90;;;;;;5040795;28;20322;-72
2023/03/15 12:01:59;;;;;;;16.23;7.10;;;6.10;99.90;;;;;;5037788;28;20354;-72
2023/03/15 12:04:46;;;;;;;11.68;6.70;;;6.40;99.90;;;;;;5023154;28;20454;-72
2023/03/15 12:07:58;;;;;;;11.02;6.75;;;6.50;99.90;;;;;;5031223;28;20585;-72
2023/03/15 12:10:46;;;;;;;9.87;6.77;;;6.40;99.90;;;;;;5041823;28;20210;-72
2023/03/15 12:13:32;;;;;;;15.43;8.40;;;6.40;99.90;;;;;;5039926;28;20465;-72
2023/03/15 12:16:22;;;;;;;13.37;7.03;;;6.30;99.90;;;;;;5028005;28;20454;-72
2023/03/15 12:19:15;;;;;;;9.60;7.33;;;6.20;99.90;;;;;;5042599;28;20445;-72
2023/03/15 12:22:01;;;;;;;10.43;7.10;;;6.20;99.90;;;;;;5038340;28;20529;-72
2023/03/15 12:24:47;;;;;;;9.57;7.50;;;6.20;99.90;;;;;;5018168;28;20451;-72
2023/03/15 12:27:37;;;;;;;11.27;7.20;;;6.30;99.90;;;;;;5033129;28;20430;-72
2023/03/15 12:30:30;;;;;;;11.55;6.88;;;6.40;99.90;;;;;;5038719;28;20430;-72
2023/03/15 12:33:20;;;;;;;13.75;8.13;;;6.50;99.90;;;;;;5035969;28;20303;-72
2023/03/15 12:36:15;;;;;;;15.23;6.60;;;6.40;99.90;;;;;;5029007;28;20264;-72
2023/03/15 12:39:19;;;;;;;11.77;7.93;;;6.40;99.90;;;;;;5047545;28;20453;-72
2023/03/15 12:42:05;;;;;;;9.15;7.07;;;6.40;99.90;;;;;;5038740;28;20477;-72
2023/03/15 12:44:51;;;;;;;13.40;7.90;;;6.30;99.90;;;;;;5026618;28;20205;-72
2023/03/15 12:47:45;;;;;;;10.20;7.27;;;6.20;99.90;;;;;;5041259;28;20438;-72
2023/03/15 12:50:51;;;;;;;9.98;8.35;;;6.20;99.90;;;;;;5020787;28;20458;-74
2023/03/15 12:53:49;;;;;;;9.67;7.87;;;6.20;99.90;;;;;;5036246;28;20301;-72
2023/03/15 12:56:42;;;;;;;9.80;7.57;;;6.30;99.90;;;;;;5032981;28;20432;-73
2023/03/15 12:59:42;;;;;;;41.58;24.02;;;6.40;99.90;;;;;;5022156;28;20613;-72
2023/03/15 13:02:33;;;;;;;26.40;17.37;;;6.40;99.90;;;;;;5029481;28;20289;-72
2023/03/15 13:05:23;;;;;;;12.43;8.27;;;6.40;99.90;;;;;;5028645;28;20450;-72
2023/03/15 13:08:21;;;;;;;13.93;9.77;;;6.30;99.90;;;;;;5034943;28;20443;-72
2023/03/15 13:11:17;;;;;;;13.67;9.10;;;6.30;99.90;;;;;;5032278;28;20438;-72
2023/03/15 13:14:19;;;;;;;12.20;7.57;;;6.10;99.90;;;;;;5032563;28;20557;-72
2023/03/15 13:17:16;;;;;;;11.30;9.00;;;6.00;99.90;;;;;;5029534;28;20433;-72
2023/03/15 13:20:24;;;;;;;11.45;9.65;;;5.90;99.90;;;;;;5030445;28;20443;-72
2023/03/15 13:23:18;;;;;;;13.90;10.25;;;5.60;99.90;;;;;;5033311;28;20230;-72
2023/03/15 13:26:19;;;;;;;15.20;9.70;;;5.60;99.90;;;;;;5024365;28;20292;-72
2023/03/15 13:29:13;;;;;;;14.55;10.70;;;5.50;99.90;;;;;;5030609;28;20513;-72
2023/03/15 13:32:11;;;;;;;18.40;9.45;;;5.40;99.90;;;;;;5029160;28;20811;-72
2023/03/15 13:34:58;;;;;;;13.47;9.63;;;5.30;99.90;;;;;;5024420;28;20200;-72
2023/03/15 13:37:44;;;;;;;15.43;10.52;;;5.20;99.90;;;;;;5030203;28;20576;-72
2023/03/15 13:40:31;;;;;;;21.90;12.07;;;5.20;99.90;;;;;;5027982;28;20223;-72
2023/03/15 13:43:17;;;;;;;15.90;10.85;;;5.30;99.90;;;;;;5031459;28;20959;-72
2023/03/15 13:46:03;;;;;;;14.90;11.90;;;5.30;99.90;;;;;;5024454;28;20203;-72
2023/03/15 13:48:50;;;;;;;17.23;12.30;;;5.40;99.90;;;;;;5028606;28;20219;-72
2023/03/15 13:51:38;;;;;;;15.48;11.40;;;5.40;99.90;;;;;;5020833;28;20208;-72
2023/03/15 13:54:27;;;;;;;11.90;10.70;;;5.60;99.90;;;;;;5023802;28;20262;-72
2023/03/15 13:57:16;;;;;;;12.73;10.95;;;5.70;99.90;;;;;;5028848;28;20566;-72
2023/03/15 14:00:09;;;;;;;16.67;10.85;;;5.80;99.90;;;;;;5026544;28;20210;-72
2023/03/15 14:02:58;;;;;;;16.08;10.80;;;5.80;99.90;;;;;;5019309;28;20227;-72
2023/03/15 14:05:46;;;;;;;13.63;10.10;;;5.80;99.90;;;;;;5023206;28;20199;-72
2023/03/15 14:08:34;;;;;;;14.55;9.68;;;5.80;99.90;;;;;;5030428;28;20511;-72
2023/03/15 14:11:33;;;;;;;15.40;10.32;;;5.80;99.90;;;;;;5024308;28;20204;-72
2023/03/15 14:14:23;;;;;;;12.83;10.50;;;5.70;99.90;;;;;;5016620;28;20554;-72
2023/03/15 14:17:20;;;;;;;11.55;9.90;;;5.70;99.90;;;;;;5023759;28;20443;-72
2023/03/15 14:20:08;;;;;;;15.27;10.10;;;5.70;99.90;;;;;;5026024;28;20203;-72
2023/03/15 14:22:59;;;;;;;13.20;10.30;;;5.70;99.90;;;;;;5033991;28;20644;-72
2023/03/15 14:25:50;;;;;;;14.90;12.33;;;5.80;99.90;;;;;;5021130;28;20821;-71
2023/03/15 14:28:37;;;;;;;17.40;12.50;;;6.00;99.90;;;;;;5028927;28;20440;-71
2023/03/15 14:31:27;;;;;;;15.33;11.10;;;6.80;99.90;;;;;;5019365;28;20598;-72
2023/03/15 14:34:22;;;;;;;13.83;10.27;;;7.70;99.90;;;;;;5035618;28;20476;-72
2023/03/15 14:37:29;;;;;;;11.23;8.13;;;8.60;99.90;;;;;;5033171;28;20427;-72
2023/03/15 14:40:33;;;;;;;12.80;9.20;;;9.20;99.90;;;;;;5015961;28;20455;-72